x

Port Aransas, Tx (ptat2) Weather Station

2:00pm - Wed 23rd Aug 2017 All times are CDT. -5 hours from GMT.

  • Wind
    11mph, 14mph gusts
  • Sea Temp 87°f
  • Air Temp 84°f
  • Sea Pressure 1013.5mb
  • Port Aransas, Tx
  • Port Aransas, Tx

More Historic Weather Station data

Upgrade to MSW Pro to gain access to the past 30 days of data for over 8000 Wavebouys and Weather Stations around the globe.

Join

Comparision Forecast

View Surf forecast
   
Wed 08/23 2:00pm 11 14 mph 1013.5mb 87f 84f
1:00pm 8 9 mph 1014.3mb 87f 84f
12:00pm 7 8 mph 1014.8mb 86f 84f
11:00am 7 8 mph 1015.1mb 85f 84f
10:00am 5 6 mph 1015.1mb 85f 84f
9:00am 2 3 mph 1014.7mb 85f 84f
8:00am 3 5 mph 1014.6mb 85f 84f
7:00am 2 2 mph 1014.8mb 85f 83f
6:00am 3 5 mph 1014.3mb 85f 83f
5:00am 5 6 mph 1014.2mb 85f 83f
4:00am 7 8 mph 1014.7mb 85f 83f
3:00am 8 9 mph 1014.9mb 85f 83f
2:00am 7 8 mph 1014.9mb 85f 83f
1:00am 7 8 mph 1015.3mb 85f 83f
12:00am 9 10 mph 1015.4mb 85f 83f
Tue 08/22 11:00pm 14 15 mph 1015.4mb 86f 84f
10:00pm 14 15 mph 1015.1mb 85f 84f
9:00pm 16 17 mph 1014.8mb 86f 84f
8:00pm 16 17 mph 1015mb 86f 84f
7:00pm 15 16 mph 1015mb 87f 84f
6:00pm 15 16 mph 1015.6mb 87f 84f
5:00pm 15 16 mph 1015.8mb 87f 84f
4:00pm 14 15 mph 1016.3mb 87f 84f
3:00pm 13 14 mph 1017mb 86f 84f
2:00pm 15 15 mph 1017.6mb 86f 83f
1:00pm 10 11 mph 1018mb 86f 83f
12:00pm 10 11 mph 1018.2mb 85f 83f
11:00am 11 11 mph 1017.9mb 85f 83f
10:00am 7 7 mph 1017.3mb 84f 83f
9:00am 6 7 mph 1016.7mb 84f 83f
8:00am 3 3 mph 1016.3mb 84f 83f
7:00am 3 5 mph 1015.8mb 84f 82f
6:00am 8 10 mph 1015.6mb 84f 82f
5:00am 9 10 mph 1015.8mb 84f 82f
4:00am 10 13 mph 1016.2mb 84f 83f
3:00am 13 14 mph 1016.5mb 84f 83f
2:00am 15 16 mph 1016.9mb 85f 83f
1:00am 14 15 mph 1017.5mb 85f 84f
12:00am 15 16 mph 1018mb 85f 84f
Mon 08/21 11:00pm 16 20 mph 1017.8mb 85f 84f
10:00pm 16 18 mph 1017.2mb 85f 84f
9:00pm  -  0 mph 1016.7mb 86f 84f
8:00pm  -  0 mph 1016.5mb 87f 84f
7:00pm  -  0 mph 1016.4mb 86f 84f
6:00pm  -  0 mph 1016.2mb 85f 84f
5:00pm  -  0 mph 1016.4mb 85f 84f
4:00pm  -  0 mph 1016.5mb 85f 84f
3:00pm  -  0 mph 1017mb 85f 84f
2:00pm  -  0 mph 1017.1mb 86f 84f
1:00pm  -  0 mph 1017.4mb 87f 84f
12:00pm  -  0 mph 1017.9mb 87f 84f
11:00am  -  0 mph 1017.7mb 87f 84f
10:00am  -  0 mph 1017.3mb 86f 83f
9:00am  -  0 mph 1016.9mb 86f 84f
8:00am  -  0 mph 1016.6mb 86f 84f
7:00am 3 3 mph 1016.2mb 87f 83f
6:00am 5 6 mph 1016.2mb 87f 83f
5:00am 7 8 mph 1016.1mb 87f 83f
4:00am 7 8 mph 1016.1mb 87f 83f
3:00am 7 8 mph 1016.4mb 87f 83f
2:00am 9 10 mph 1016.6mb 87f 84f
1:00am 9 10 mph 1016.7mb 87f 84f
12:00am 11 14 mph 1016.5mb 88f 84f
Sun 08/20 11:00pm 10 11 mph 1016.1mb 88f 84f
10:00pm 10 14 mph 1015.3mb 88f 84f
9:00pm 14 15 mph 1014.8mb 89f 84f
8:00pm 15 16 mph 1014.4mb 89f 84f
7:00pm 15 16 mph 1014.1mb 90f 84f
6:00pm 14 16 mph 1014.4mb 90f 84f
5:00pm 14 14 mph 1014.4mb 90f 85f
4:00pm 10 11 mph 1014.7mb 89f 84f
3:00pm 7 8 mph 1015.4mb 89f 84f
2:00pm 8 9 mph 1015.9mb 88f 84f
1:00pm 8 9 mph 1016.3mb 88f 84f
12:00pm 6 6 mph 1016.3mb 87f 83f
11:00am 7 7 mph 1016.3mb 87f 83f
10:00am 5 6 mph 1016mb 86f 83f
9:00am 6 7 mph 1015.1mb 86f 82f
8:00am 7 7 mph 1014.6mb 86f 83f
7:00am 7 8 mph 1014.3mb 87f 82f
6:00am 8 9 mph 1014mb 87f 82f
5:00am 8 9 mph 1014mb 87f 83f
4:00am 10 10 mph 1014.1mb 87f 83f
3:00am 9 10 mph 1014.7mb 87f 83f
2:00am 10 11 mph 1015.2mb 87f 83f
1:00am 11 14 mph 1015.6mb 88f 84f
12:00am 11 14 mph 1015.7mb 88f 84f
Sat 08/19 11:00pm 9 10 mph 1015.6mb 88f 84f
10:00pm 10 13 mph 1014.9mb 89f 84f
9:00pm 10 13 mph 1014.2mb 89f 84f